createdAt,value
2022-11-17T00:00:42.187Z,147.80
2022-11-17T00:03:14.681Z,148.38
2022-11-17T00:05:41.317Z,144.90
2022-11-17T00:08:07.884Z,146.43
2022-11-17T00:10:34.544Z,147.98
2022-11-17T00:13:19.704Z,146.07
2022-11-17T00:15:46.305Z,149.70
2022-11-17T00:18:31.631Z,155.73
2022-11-17T00:21:16.751Z,144.25
2022-11-17T00:23:50.329Z,150.30
2022-11-17T00:26:24.079Z,147.82
2022-11-17T00:28:55.516Z,149.65
2022-11-17T00:31:42.216Z,157.57
2022-11-17T00:36:47.266Z,145.63
2022-11-17T00:39:15.464Z,148.47
2022-11-17T00:41:42.039Z,148.70
2022-11-17T00:44:09.255Z,144.23
2022-11-17T00:46:37.327Z,152.15
2022-11-17T00:49:05.900Z,146.70
2022-11-17T00:51:33.123Z,145.75
2022-11-17T00:54:00.128Z,154.82
2022-11-17T00:56:27.316Z,150.32
2022-11-17T00:58:54.427Z,141.50
2022-11-17T01:01:21.377Z,148.73
2022-11-17T01:03:48.254Z,147.98
2022-11-17T01:06:18.864Z,153.50
2022-11-17T01:08:46.464Z,143.30
2022-11-17T01:11:18.332Z,145.65
2022-11-17T01:13:47.436Z,141.77
2022-11-17T01:16:18.780Z,146.40
2022-11-17T01:18:47.911Z,145.07
2022-11-17T01:21:17.727Z,151.65
2022-11-17T01:23:45.560Z,148.43
2022-11-17T01:26:17.460Z,146.73
2022-11-17T01:28:44.261Z,152.85
2022-11-17T01:31:14.242Z,149.43
2022-11-17T01:33:41.412Z,146.35
2022-11-17T01:36:15.017Z,148.27
2022-11-17T01:38:42.571Z,146.43
2022-11-17T01:41:27.038Z,142.70
2022-11-17T01:44:37.604Z,148.65
2022-11-17T01:47:06.145Z,156.63
2022-11-17T01:49:33.418Z,145.95
2022-11-17T01:52:04.914Z,150.40
2022-11-17T01:54:34.358Z,151.07
2022-11-17T01:57:12.426Z,155.57
2022-11-17T01:59:46.367Z,153.18
2022-11-17T02:02:13.035Z,142.82
2022-11-17T02:04:53.458Z,143.43
2022-11-17T02:07:24.762Z,145.27
2022-11-17T02:09:53.178Z,144.45
2022-11-17T02:12:21.880Z,144.55
2022-11-17T02:14:53.121Z,146.00
2022-11-17T02:17:21.591Z,144.40
2022-11-17T02:20:00.282Z,153.63
2022-11-17T02:22:38.507Z,143.40
2022-11-17T02:25:05.055Z,144.85
2022-11-17T02:28:13.414Z,141.45
2022-11-17T02:31:15.005Z,141.55
2022-11-17T02:33:52.827Z,145.20
2022-11-17T02:36:22.043Z,152.63
2022-11-17T02:39:07.202Z,151.57
2022-11-17T02:41:42.527Z,143.00
2022-11-17T02:44:30.934Z,142.77
2022-11-17T02:47:10.360Z,144.73
2022-11-17T02:49:47.962Z,145.80
2022-11-17T02:52:17.302Z,143.73
2022-11-17T02:54:43.944Z,141.20
2022-11-17T02:57:33.625Z,142.93
2022-11-17T03:00:04.123Z,142.70
2022-11-17T03:02:42.817Z,150.38
2022-11-17T03:05:17.727Z,147.43
2022-11-17T03:08:09.113Z,146.40
2022-11-17T03:10:44.854Z,144.70
2022-11-17T03:13:49.664Z,146.32
2022-11-17T03:16:32.168Z,151.23
2022-11-17T03:19:28.662Z,143.82
2022-11-17T03:22:27.282Z,147.63
2022-11-17T03:25:00.426Z,147.32
2022-11-17T03:27:32.753Z,137.07
2022-11-17T03:30:06.830Z,142.95
2022-11-17T03:32:38.565Z,148.30
2022-11-17T03:35:09.638Z,143.05
2022-11-17T03:37:40.737Z,155.80
2022-11-17T03:40:13.795Z,147.02
2022-11-17T03:42:52.613Z,143.25
2022-11-17T03:45:24.759Z,145.05
2022-11-17T03:47:59.469Z,144.48
2022-11-17T03:50:37.930Z,147.68
2022-11-17T03:53:05.904Z,138.00
2022-11-17T03:55:51.516Z,146.52
2022-11-17T03:58:21.899Z,141.77
2022-11-17T04:00:52.656Z,150.85
2022-11-17T04:03:22.781Z,144.65
2022-11-17T04:05:49.598Z,147.85
2022-11-17T04:08:16.862Z,143.77
2022-11-17T04:11:02.315Z,153.98
2022-11-17T04:13:47.496Z,145.77
2022-11-17T04:16:14.144Z,142.98
2022-11-17T04:18:40.714Z,137.93
2022-11-17T04:21:07.285Z,140.93
2022-11-17T04:23:34.151Z,139.02
2022-11-17T04:26:20.576Z,138.52
2022-11-17T04:28:49.257Z,148.18
2022-11-17T04:31:18.826Z,146.57
2022-11-17T04:33:53.734Z,139.25
2022-11-17T04:36:23.057Z,139.57
2022-11-17T04:38:52.227Z,142.82
2022-11-17T04:41:38.854Z,138.48
2022-11-17T04:44:07.188Z,146.80
2022-11-17T04:46:35.174Z,146.80
2022-11-17T04:49:02.827Z,140.45
2022-11-17T04:51:30.514Z,150.32
2022-11-17T04:53:57.872Z,146.98
2022-11-17T04:56:25.410Z,136.27
2022-11-17T04:58:52.894Z,150.30
2022-11-17T05:01:22.353Z,152.70
2022-11-17T05:03:50.036Z,147.30
2022-11-17T05:06:20.284Z,150.10
2022-11-17T05:08:47.514Z,144.27
2022-11-17T05:11:33.818Z,148.60
2022-11-17T05:14:00.917Z,142.07
2022-11-17T05:16:46.193Z,143.80
2022-11-17T05:19:20.602Z,145.70
2022-11-17T05:21:47.399Z,146.45
2022-11-17T05:24:17.116Z,142.77
2022-11-17T05:26:45.654Z,149.63
2022-11-17T05:29:14.039Z,143.65
2022-11-17T05:31:40.680Z,145.63
2022-11-17T05:34:10.086Z,148.30
2022-11-17T05:36:36.977Z,153.38
2022-11-17T05:39:04.004Z,148.80
2022-11-17T05:41:30.734Z,145.70
2022-11-17T05:43:58.083Z,155.00
2022-11-17T05:46:25.777Z,159.25
2022-11-17T05:48:53.511Z,153.02
2022-11-17T05:51:22.772Z,151.80
2022-11-17T05:53:50.258Z,153.65
2022-11-17T05:56:35.545Z,159.05
2022-11-17T05:59:14.394Z,144.77
2022-11-17T06:02:03.943Z,151.20
2022-11-17T06:04:30.866Z,153.50
2022-11-17T06:06:59.482Z,153.70
2022-11-17T06:09:34.523Z,152.05
2022-11-17T06:12:05.933Z,149.18
2022-11-17T06:14:35.500Z,163.90
2022-11-17T06:17:06.909Z,153.13
2022-11-17T06:19:44.076Z,153.68
2022-11-17T06:22:12.748Z,159.85
2022-11-17T06:24:43.206Z,150.55
2022-11-17T06:27:12.137Z,150.32
2022-11-17T06:29:44.010Z,153.35
2022-11-17T06:32:10.987Z,154.95
2022-11-17T06:34:37.805Z,155.90
2022-11-17T06:37:04.526Z,159.02
2022-11-17T06:39:31.125Z,154.23
2022-11-17T06:41:57.714Z,154.70
2022-11-17T06:44:24.309Z,156.77
2022-11-17T06:46:50.874Z,152.18
2022-11-17T06:49:17.518Z,156.95
2022-11-17T06:51:45.551Z,152.20
2022-11-17T06:54:14.871Z,159.35
2022-11-17T06:56:42.066Z,153.35
2022-11-17T06:59:08.707Z,156.02
2022-11-17T07:01:36.564Z,165.63
2022-11-17T07:04:03.331Z,159.43
2022-11-17T07:06:30.052Z,159.27
2022-11-17T07:08:56.722Z,166.90
2022-11-17T07:11:23.355Z,163.98
2022-11-17T07:13:50.011Z,160.30
2022-11-17T07:16:23.177Z,158.90
2022-11-17T07:18:52.144Z,155.77
2022-11-17T07:21:19.310Z,158.48
2022-11-17T07:23:46.273Z,159.02
2022-11-17T07:26:13.141Z,156.82
2022-11-17T07:28:39.875Z,152.95
2022-11-17T07:31:08.314Z,162.63
2022-11-17T07:33:35.719Z,165.05
2022-11-17T07:36:04.704Z,157.63
2022-11-17T07:38:33.751Z,158.20
2022-11-17T07:41:00.911Z,155.55
2022-11-17T07:43:27.879Z,158.75
2022-11-17T07:45:55.018Z,163.63
2022-11-17T07:48:21.759Z,158.52
2022-11-17T07:50:48.539Z,154.50
2022-11-17T07:53:15.369Z,157.45
2022-11-17T07:55:42.047Z,157.15
2022-11-17T07:58:08.814Z,151.10
2022-11-17T08:00:35.478Z,154.45
2022-11-17T08:03:05.598Z,153.07
2022-11-17T08:05:40.092Z,155.35
2022-11-17T08:08:09.971Z,153.25
2022-11-17T08:10:36.747Z,161.40
2022-11-17T08:13:04.091Z,154.60
2022-11-17T08:15:31.509Z,151.23
2022-11-17T08:18:00.257Z,157.25
2022-11-17T08:20:29.296Z,159.13
2022-11-17T08:22:56.899Z,153.25
2022-11-17T08:25:26.391Z,156.02
2022-11-17T08:27:57.988Z,160.27
2022-11-17T08:30:25.909Z,157.98
2022-11-17T08:32:54.012Z,162.60
2022-11-17T08:35:23.800Z,154.40
2022-11-17T08:37:50.756Z,158.80
2022-11-17T08:40:20.789Z,159.00
2022-11-17T08:42:59.180Z,153.88
2022-11-17T08:45:27.463Z,158.25
2022-11-17T08:47:56.421Z,147.82
2022-11-17T08:50:23.080Z,155.45
2022-11-17T08:52:49.674Z,164.52
2022-11-17T08:55:16.444Z,160.65
2022-11-17T08:57:43.879Z,161.98
2022-11-17T09:00:11.537Z,160.98
2022-11-17T09:02:38.764Z,154.63
2022-11-17T09:05:05.997Z,151.32
2022-11-17T09:07:35.050Z,153.13
2022-11-17T09:10:02.532Z,159.13
2022-11-17T09:12:29.229Z,177.75
2022-11-17T09:14:56.091Z,154.88
2022-11-17T09:17:22.755Z,157.90
2022-11-17T09:19:49.371Z,153.73
2022-11-17T09:22:16.044Z,152.70
2022-11-17T09:24:42.653Z,151.90
2022-11-17T09:27:09.314Z,152.05
2022-11-17T09:29:35.944Z,154.27
2022-11-17T09:32:02.661Z,162.88
2022-11-17T09:34:29.485Z,160.52
2022-11-17T09:36:56.525Z,158.77
2022-11-17T09:39:23.144Z,157.73
2022-11-17T09:41:53.293Z,163.52
2022-11-17T09:44:29.921Z,161.18
2022-11-17T09:47:06.241Z,155.00
2022-11-17T09:50:08.536Z,154.55
2022-11-17T09:52:56.972Z,163.43
2022-11-17T09:55:36.325Z,156.15
2022-11-17T09:58:31.118Z,159.38
2022-11-17T10:00:57.856Z,162.30
2022-11-17T10:03:43.596Z,152.15
2022-11-17T10:06:16.284Z,152.75
2022-11-17T10:09:13.576Z,162.73
2022-11-17T10:11:43.586Z,162.75
2022-11-17T10:14:10.869Z,157.77
2022-11-17T10:16:38.953Z,158.48
2022-11-17T10:19:21.568Z,159.68
2022-11-17T10:21:54.507Z,173.90
2022-11-17T10:24:48.200Z,167.93
2022-11-17T10:27:17.717Z,170.35
2022-11-17T10:30:19.643Z,157.55
2022-11-17T10:32:51.357Z,155.75
2022-11-17T10:35:21.478Z,168.43
2022-11-17T10:37:56.777Z,173.63
2022-11-17T10:40:30.645Z,158.30
2022-11-17T10:43:03.085Z,164.50
2022-11-17T10:45:30.332Z,155.27
2022-11-17T10:48:18.484Z,174.63
2022-11-17T10:50:53.333Z,176.27
2022-11-17T10:53:23.900Z,155.95
2022-11-17T10:56:04.773Z,160.30
2022-11-17T10:58:53.165Z,160.95
2022-11-17T11:01:28.512Z,169.45
2022-11-17T11:03:55.229Z,164.88
2022-11-17T11:06:25.019Z,158.13
2022-11-17T11:08:57.260Z,177.02
2022-11-17T11:11:45.576Z,158.50
2022-11-17T11:14:33.712Z,167.80
2022-11-17T11:17:09.789Z,164.27
2022-11-17T11:19:36.624Z,160.63
2022-11-17T11:22:10.807Z,166.48
2022-11-17T11:25:03.083Z,164.10
2022-11-17T11:28:00.548Z,170.43
2022-11-17T11:30:27.690Z,162.25
2022-11-17T11:33:06.108Z,166.95
2022-11-17T11:35:39.632Z,168.02
2022-11-17T11:38:21.222Z,166.32
2022-11-17T11:41:15.830Z,166.77
2022-11-17T11:44:19.113Z,159.60
2022-11-17T11:47:11.560Z,172.57
2022-11-17T11:49:46.766Z,173.70
2022-11-17T11:52:21.014Z,164.45
2022-11-17T11:54:54.335Z,164.55
2022-11-17T11:57:30.660Z,156.68
2022-11-17T12:00:04.531Z,171.77
2022-11-17T12:02:51.490Z,171.80
2022-11-17T12:05:47.502Z,158.45
2022-11-17T12:08:32.004Z,160.02
2022-11-17T12:11:26.288Z,154.75
2022-11-17T12:13:54.654Z,158.25
2022-11-17T12:16:34.719Z,157.40
2022-11-17T12:19:01.784Z,167.93
2022-11-17T12:21:30.366Z,162.73
2022-11-17T12:24:15.957Z,166.75
2022-11-17T12:26:42.652Z,169.05
2022-11-17T12:29:21.475Z,166.43
2022-11-17T12:31:51.685Z,164.65
2022-11-17T12:34:30.821Z,161.50
2022-11-17T12:37:13.185Z,162.70
2022-11-17T12:39:58.790Z,166.32
2022-11-17T12:42:27.123Z,170.52
2022-11-17T12:45:11.093Z,168.82
2022-11-17T12:47:59.491Z,165.35
2022-11-17T12:50:44.340Z,167.90
2022-11-17T12:53:13.607Z,165.18
2022-11-17T12:56:23.173Z,171.25
2022-11-17T12:59:25.676Z,162.85
2022-11-17T13:02:21.656Z,163.38
2022-11-17T13:04:53.003Z,172.10
2022-11-17T13:07:26.782Z,166.15
2022-11-17T13:09:58.535Z,170.93
2022-11-17T13:12:27.881Z,163.38
2022-11-17T13:14:59.120Z,165.93
2022-11-17T13:17:43.003Z,168.02
2022-11-17T13:20:24.532Z,165.45
2022-11-17T13:23:14.829Z,166.15
2022-11-17T13:25:41.623Z,166.43
2022-11-17T13:28:32.887Z,161.35
2022-11-17T13:31:00.930Z,161.32
2022-11-17T13:33:29.688Z,162.13
2022-11-17T13:36:19.850Z,168.40
2022-11-17T13:38:48.135Z,170.50
2022-11-17T13:41:17.471Z,165.82
2022-11-17T13:43:46.421Z,159.55
2022-11-17T13:46:13.203Z,161.30
2022-11-17T13:48:42.147Z,158.23
2022-11-17T13:51:20.771Z,159.52
2022-11-17T13:54:06.842Z,156.60
2022-11-17T13:56:36.512Z,152.05
2022-11-17T13:59:20.124Z,154.35
2022-11-17T14:01:46.853Z,166.85
2022-11-17T14:04:19.363Z,152.43
2022-11-17T14:06:57.447Z,157.82
2022-11-17T14:09:26.163Z,159.73
2022-11-17T14:11:53.131Z,167.52
2022-11-17T14:14:23.991Z,160.80
2022-11-17T14:16:50.710Z,166.55
2022-11-17T14:19:17.373Z,169.10
2022-11-17T14:22:09.384Z,168.77
2022-11-17T14:24:37.189Z,161.85
2022-11-17T14:27:13.292Z,160.95
2022-11-17T14:32:06.440Z,160.80
2022-11-17T14:34:33.063Z,156.57
2022-11-17T14:37:00.981Z,156.80
2022-11-17T14:39:27.677Z,160.23
2022-11-17T14:41:54.327Z,157.77
2022-11-17T14:44:21.945Z,155.07
2022-11-17T14:46:48.604Z,157.23
2022-11-17T14:49:15.456Z,162.75
2022-11-17T14:51:42.276Z,166.88
2022-11-17T14:54:08.936Z,158.57
2022-11-17T14:56:35.575Z,159.75
2022-11-17T14:59:02.342Z,159.63
2022-11-17T15:01:32.013Z,156.85
2022-11-17T15:04:15.424Z,170.52
2022-11-17T15:06:47.815Z,163.10
2022-11-17T15:09:16.462Z,181.82
2022-11-17T15:11:43.065Z,177.50
2022-11-17T15:14:11.444Z,163.40
2022-11-17T15:16:38.320Z,163.50
2022-11-17T15:19:05.057Z,158.88
2022-11-17T15:21:31.727Z,169.43
2022-11-17T15:23:58.317Z,164.23
2022-11-17T15:26:24.989Z,174.45
2022-11-17T15:28:51.654Z,165.35
2022-11-17T15:31:20.107Z,166.32
2022-11-17T15:33:48.247Z,171.30
2022-11-17T15:36:17.989Z,165.02
2022-11-17T15:38:45.345Z,172.25
2022-11-17T15:41:13.599Z,159.80
2022-11-17T15:43:42.359Z,169.32
2022-11-17T15:46:17.054Z,163.43
2022-11-17T15:48:45.699Z,160.98
2022-11-17T15:51:17.568Z,158.52
2022-11-17T15:53:46.582Z,160.73
2022-11-17T15:56:16.726Z,160.25
2022-11-17T15:58:44.064Z,155.82
2022-11-17T16:01:13.559Z,160.10
2022-11-17T16:03:42.956Z,156.90
2022-11-17T16:06:10.769Z,154.80
2022-11-17T16:08:38.504Z,157.95
2022-11-17T16:11:05.653Z,168.60
2022-11-17T16:13:32.652Z,158.52
2022-11-17T16:15:59.649Z,173.02
2022-11-17T16:18:26.697Z,163.43
2022-11-17T16:20:53.491Z,162.90
2022-11-17T16:23:20.201Z,159.68
2022-11-17T16:25:48.266Z,165.05
2022-11-17T16:28:16.486Z,165.98
2022-11-17T16:30:43.107Z,167.85
2022-11-17T16:33:12.025Z,162.63
2022-11-17T16:35:40.509Z,164.63
2022-11-17T16:38:14.990Z,169.75
2022-11-17T16:40:42.393Z,162.23
2022-11-17T16:43:13.541Z,159.40
2022-11-17T16:45:43.807Z,158.27
2022-11-17T16:48:12.102Z,156.00
2022-11-17T16:50:40.543Z,165.27
2022-11-17T16:53:07.195Z,150.80
2022-11-17T16:55:35.421Z,155.35
2022-11-17T16:58:03.618Z,153.18
2022-11-17T17:00:30.572Z,154.05
2022-11-17T17:02:57.337Z,152.27
2022-11-17T17:05:29.501Z,157.07
2022-11-17T17:07:57.077Z,158.05
2022-11-17T17:10:24.758Z,151.50
2022-11-17T17:12:51.422Z,157.02
2022-11-17T17:15:18.248Z,162.25
2022-11-17T17:17:44.892Z,152.95
2022-11-17T17:20:11.949Z,168.77
2022-11-17T17:22:38.590Z,175.55
2022-11-17T17:25:05.798Z,161.30
2022-11-17T17:27:32.472Z,164.13
2022-11-17T17:29:59.155Z,162.45
2022-11-17T17:32:25.794Z,167.82
2022-11-17T17:34:52.463Z,172.65
2022-11-17T17:37:19.117Z,161.15
2022-11-17T17:39:45.725Z,154.20
2022-11-17T17:42:13.128Z,168.93
2022-11-17T17:44:39.741Z,154.27
2022-11-17T17:47:06.593Z,164.00
2022-11-17T17:49:33.221Z,166.20
2022-11-17T17:51:59.860Z,158.68
2022-11-17T17:54:26.464Z,158.65
2022-11-17T17:56:53.269Z,155.38
2022-11-17T17:59:20.215Z,156.57
2022-11-17T18:01:48.097Z,161.60
2022-11-17T18:04:16.529Z,171.38
2022-11-17T18:06:47.496Z,158.10
2022-11-17T18:09:15.682Z,168.80
2022-11-17T18:11:46.127Z,171.38
2022-11-17T18:14:13.506Z,169.38
2022-11-17T18:16:40.888Z,169.57
2022-11-17T18:19:09.250Z,173.43
2022-11-17T18:21:36.549Z,166.18
2022-11-17T18:24:03.963Z,172.63
2022-11-17T18:26:36.081Z,174.00
2022-11-17T18:29:05.918Z,168.13
2022-11-17T18:31:35.210Z,170.88
2022-11-17T18:34:05.041Z,165.98
2022-11-17T18:36:32.482Z,160.63
2022-11-17T18:38:59.172Z,164.35
2022-11-17T18:41:27.382Z,157.73
2022-11-17T18:43:54.733Z,174.25
2022-11-17T18:46:23.469Z,178.25
2022-11-17T18:48:55.904Z,163.20
2022-11-17T18:51:25.014Z,160.05
2022-11-17T18:53:54.029Z,165.02
2022-11-17T18:56:25.964Z,165.73
2022-11-17T18:58:52.971Z,156.50
2022-11-17T19:01:22.144Z,151.32
2022-11-17T19:03:51.048Z,155.45
2022-11-17T19:06:19.334Z,154.27
2022-11-17T19:08:47.414Z,151.38
2022-11-17T19:11:15.139Z,153.38
2022-11-17T19:13:43.102Z,145.05
2022-11-17T19:16:12.924Z,152.50
2022-11-17T19:18:39.700Z,153.80
2022-11-17T19:21:15.224Z,150.63
2022-11-17T19:23:49.579Z,150.98
2022-11-17T19:26:26.989Z,149.48
2022-11-17T19:29:16.664Z,152.57
2022-11-17T19:31:44.992Z,163.55
2022-11-17T19:34:12.011Z,168.93
2022-11-17T19:36:38.753Z,163.30
2022-11-17T19:39:05.412Z,173.95
2022-11-17T19:41:34.832Z,170.30
2022-11-17T19:44:04.154Z,158.07
2022-11-17T19:46:32.233Z,160.50
2022-11-17T19:48:59.337Z,164.93
2022-11-17T19:51:30.921Z,158.18
2022-11-17T19:54:02.259Z,166.73
2022-11-17T19:56:29.165Z,168.40
2022-11-17T19:58:55.959Z,174.02
2022-11-17T20:01:24.942Z,167.20
2022-11-17T20:03:52.340Z,178.15
2022-11-17T20:06:22.040Z,167.93
2022-11-17T20:08:49.151Z,178.65
2022-11-17T20:11:20.850Z,172.82
2022-11-17T20:13:47.834Z,168.80
2022-11-17T20:16:18.115Z,167.35
2022-11-17T20:18:49.288Z,168.75
2022-11-17T20:21:15.912Z,169.48
2022-11-17T20:23:43.552Z,167.48
2022-11-17T20:26:14.563Z,176.57
2022-11-17T20:28:42.083Z,172.93
2022-11-17T20:31:13.552Z,165.25
2022-11-17T20:33:41.243Z,177.77
2022-11-17T20:36:10.915Z,178.35
2022-11-17T20:38:37.641Z,176.13
2022-11-17T20:41:05.249Z,162.98
2022-11-17T20:43:33.540Z,169.88
2022-11-17T20:46:00.271Z,164.13
2022-11-17T20:48:29.081Z,161.18
2022-11-17T20:50:56.773Z,161.63
2022-11-17T20:53:23.742Z,169.23
2022-11-17T20:55:50.564Z,158.98
2022-11-17T20:58:17.184Z,165.68
2022-11-17T21:00:43.977Z,163.05
2022-11-17T21:03:10.628Z,164.57
2022-11-17T21:05:37.268Z,155.30
2022-11-17T21:08:04.204Z,158.90
2022-11-17T21:10:30.874Z,160.85
2022-11-17T21:12:58.124Z,151.68
2022-11-17T21:15:25.088Z,164.55
2022-11-17T21:18:10.448Z,160.80
2022-11-17T21:20:37.082Z,150.82
2022-11-17T21:23:03.846Z,155.05
2022-11-17T21:25:30.426Z,154.32
2022-11-17T21:27:57.136Z,150.93
2022-11-17T21:30:23.752Z,153.70
2022-11-17T21:32:50.385Z,152.35
2022-11-17T21:35:17.187Z,156.02
2022-11-17T21:37:43.872Z,149.73
2022-11-17T21:40:10.916Z,153.00
2022-11-17T21:42:37.567Z,151.00
2022-11-17T21:45:04.435Z,151.70
2022-11-17T21:47:31.061Z,156.82
2022-11-17T21:49:57.677Z,149.02
2022-11-17T21:52:24.317Z,162.38
2022-11-17T21:54:51.282Z,145.27
2022-11-17T21:57:17.892Z,159.68
2022-11-17T21:59:44.482Z,157.55
2022-11-17T22:02:11.144Z,147.40
2022-11-17T22:04:37.802Z,145.32
2022-11-17T22:07:04.490Z,145.18
2022-11-17T22:09:31.152Z,151.63
2022-11-17T22:11:58.547Z,152.73
2022-11-17T22:14:25.807Z,149.88
2022-11-17T22:16:54.014Z,146.35
2022-11-17T22:19:22.746Z,144.85
2022-11-17T22:21:52.004Z,146.45
2022-11-17T22:24:19.701Z,148.40
2022-11-17T22:26:46.566Z,155.63
2022-11-17T22:29:17.109Z,148.88
2022-11-17T22:31:44.980Z,162.85
2022-11-17T22:34:13.137Z,151.80
2022-11-17T22:36:40.050Z,154.20
2022-11-17T22:39:07.061Z,144.95
2022-11-17T22:41:33.718Z,150.38
2022-11-17T22:44:00.688Z,157.07
2022-11-17T22:46:28.607Z,147.65
2022-11-17T22:48:55.353Z,147.98
2022-11-17T22:51:40.677Z,149.35
2022-11-17T22:54:08.218Z,150.90
2022-11-17T22:56:35.639Z,146.60
2022-11-17T22:59:02.357Z,153.50
2022-11-17T23:01:29.243Z,146.50
2022-11-17T23:03:56.060Z,154.65
2022-11-17T23:06:22.947Z,152.45
2022-11-17T23:08:50.244Z,153.15
